Time;durP1;ratioP1;P1;durP2;ratioP2;P2;SDS_P1;SDS_P2;PMS_P1;PMS_P2;Temp;Humidity;BMP_temperature;BMP_pressure;BME280_temperature;BME280_humidity;BME280_pressure;Samples;Min_cycle;Max_cycle;Signal;HPM_P1;HPM_P2
2023/01/23 00:01:38;;;;;;;9.27;7.28;;;;;;;;;;5004922;28;20053;-83
2023/01/23 00:04:05;;;;;;;8.27;6.45;;;;;;;;;;4991669;28;20049;-84
2023/01/23 00:06:33;;;;;;;6.80;5.72;;;;;;;;;;5011469;28;20053;-84
2023/01/23 00:09:00;;;;;;;6.32;5.50;;;;;;;;;;5008200;28;20045;-84
2023/01/23 00:11:29;;;;;;;12.35;8.13;;;;;;;;;;4998842;28;20049;-83
2023/01/23 00:14:00;;;;;;;7.63;5.95;;;;;;;;;;4991786;28;20056;-84
2023/01/23 00:16:29;;;;;;;9.80;7.10;;;;;;;;;;4981264;28;20050;-83
2023/01/23 00:18:58;;;;;;;9.88;6.55;;;;;;;;;;5008142;28;20042;-84
2023/01/23 00:21:27;;;;;;;8.25;7.30;;;;;;;;;;5018794;28;20400;-84
2023/01/23 00:23:56;;;;;;;7.05;6.32;;;;;;;;;;4976501;28;20046;-83
2023/01/23 00:26:25;;;;;;;8.35;6.20;;;;;;;;;;4991528;28;20034;-83
2023/01/23 00:28:55;;;;;;;8.00;7.03;;;;;;;;;;4995325;28;20045;-83
2023/01/23 00:31:27;;;;;;;7.65;6.93;;;;;;;;;;4988664;28;20050;-84
2023/01/23 00:33:56;;;;;;;8.80;7.60;;;;;;;;;;4989192;28;20058;-83
2023/01/23 00:36:30;;;;;;;6.72;5.55;;;;;;;;;;4995295;28;20408;-83
2023/01/23 00:38:57;;;;;;;10.68;7.68;;;;;;;;;;4996460;28;20053;-84
2023/01/23 00:41:29;;;;;;;7.38;5.93;;;;;;;;;;5011787;28;20057;-84
2023/01/23 00:43:56;;;;;;;8.40;7.57;;;;;;;;;;4993491;28;20050;-84
2023/01/23 00:46:24;;;;;;;8.40;7.18;;;;;;;;;;4991458;28;20050;-83
2023/01/23 00:48:53;;;;;;;9.25;6.93;;;;;;;;;;5010024;28;20120;-83
2023/01/23 00:51:24;;;;;;;11.10;6.53;;;;;;;;;;4991887;28;20048;-83
2023/01/23 00:53:55;;;;;;;9.27;7.78;;;;;;;;;;4978449;28;20049;-83
2023/01/23 00:56:24;;;;;;;10.07;6.43;;;;;;;;;;4989315;28;20050;-82
2023/01/23 00:58:56;;;;;;;7.68;6.03;;;;;;;;;;5010961;28;20588;-83
2023/01/23 01:01:23;;;;;;;10.75;7.88;;;;;;;;;;4989367;28;20053;-83
2023/01/23 01:03:56;;;;;;;8.77;7.47;;;;;;;;;;4992664;28;20065;-83
2023/01/23 01:06:23;;;;;;;9.00;7.20;;;;;;;;;;4990500;28;20414;-82
2023/01/23 01:08:52;;;;;;;7.82;6.93;;;;;;;;;;4991290;28;20056;-83
2023/01/23 01:11:21;;;;;;;11.10;6.70;;;;;;;;;;4991286;28;20069;-83
2023/01/23 01:13:48;;;;;;;8.88;6.32;;;;;;;;;;4991876;28;20053;-83
2023/01/23 01:16:18;;;;;;;9.70;6.90;;;;;;;;;;4992131;28;20046;-83
2023/01/23 01:18:45;;;;;;;11.65;8.95;;;;;;;;;;4989013;28;20050;-83
2023/01/23 01:21:15;;;;;;;11.90;8.98;;;;;;;;;;4989400;28;20045;-83
2023/01/23 01:23:45;;;;;;;9.23;6.03;;;;;;;;;;4993030;28;20045;-83
2023/01/23 01:26:13;;;;;;;9.25;7.97;;;;;;;;;;4990875;28;20046;-83
2023/01/23 01:28:42;;;;;;;10.07;7.22;;;;;;;;;;5009871;28;20428;-83
2023/01/23 01:31:11;;;;;;;8.70;7.00;;;;;;;;;;4987794;28;20403;-83
2023/01/23 01:33:39;;;;;;;8.25;6.65;;;;;;;;;;4989865;28;20053;-83
2023/01/23 01:36:09;;;;;;;10.07;7.00;;;;;;;;;;4969111;28;20054;-83
2023/01/23 01:38:36;;;;;;;10.50;6.85;;;;;;;;;;4990899;28;20393;-83
2023/01/23 01:41:03;;;;;;;10.38;8.48;;;;;;;;;;4990089;28;20061;-83
2023/01/23 01:43:34;;;;;;;11.85;8.77;;;;;;;;;;4992199;28;20118;-83
2023/01/23 01:46:21;;;;;;;9.30;7.13;;;;;;;;;;5007208;28;20049;-83
2023/01/23 01:48:54;;;;;;;8.77;6.65;;;;;;;;;;4981662;28;20046;-83
2023/01/23 01:51:26;;;;;;;9.23;7.03;;;;;;;;;;4994203;28;20044;-83
2023/01/23 01:54:00;;;;;;;9.15;7.90;;;;;;;;;;4991254;28;20045;-83
2023/01/23 01:56:30;;;;;;;11.27;7.25;;;;;;;;;;4985209;28;20050;-82
2023/01/23 01:59:00;;;;;;;9.70;6.90;;;;;;;;;;4986346;28;20491;-83
2023/01/23 02:01:29;;;;;;;9.30;7.30;;;;;;;;;;4979461;28;20057;-83
2023/01/23 02:03:56;;;;;;;8.13;5.47;;;;;;;;;;4991899;28;20045;-83
2023/01/23 02:06:24;;;;;;;10.60;6.38;;;;;;;;;;4991960;28;20045;-82
2023/01/23 02:08:57;;;;;;;8.43;7.05;;;;;;;;;;4971297;28;20057;-83
2023/01/23 02:11:24;;;;;;;8.77;6.22;;;;;;;;;;4989533;28;20497;-83
2023/01/23 02:13:54;;;;;;;9.15;6.97;;;;;;;;;;5007381;28;20053;-84
2023/01/23 02:16:28;;;;;;;8.82;6.00;;;;;;;;;;4975775;28;20061;-83
2023/01/23 02:19:01;;;;;;;9.20;6.75;;;;;;;;;;4975447;28;20049;-83
2023/01/23 02:21:30;;;;;;;9.27;7.63;;;;;;;;;;4990196;28;20057;-83
2023/01/23 02:24:12;;;;;;;8.70;7.80;;;;;;;;;;4991072;28;20416;-83
2023/01/23 02:26:42;;;;;;;8.85;6.93;;;;;;;;;;4978905;28;20049;-83
2023/01/23 02:29:10;;;;;;;7.32;6.10;;;;;;;;;;4982021;28;20076;-83
2023/01/23 02:31:48;;;;;;;8.77;6.75;;;;;;;;;;5009684;28;20050;-83
2023/01/23 02:34:15;;;;;;;9.23;6.03;;;;;;;;;;4976207;28;20072;-83
2023/01/23 02:36:48;;;;;;;7.55;6.32;;;;;;;;;;5009383;28;20054;-83
2023/01/23 02:39:21;;;;;;;7.80;6.72;;;;;;;;;;4989322;28;20057;-83
2023/01/23 02:41:56;;;;;;;9.27;6.70;;;;;;;;;;4996086;28;20049;-83
2023/01/23 02:44:38;;;;;;;9.25;6.60;;;;;;;;;;4969180;28;20050;-83
2023/01/23 02:47:11;;;;;;;10.18;7.65;;;;;;;;;;4988270;28;20042;-83
2023/01/23 02:49:43;;;;;;;8.48;6.93;;;;;;;;;;4985167;28;20046;-83
2023/01/23 02:52:11;;;;;;;9.90;6.45;;;;;;;;;;4989802;28;20049;-83
2023/01/23 02:54:41;;;;;;;7.78;5.20;;;;;;;;;;4991275;28;20053;-83
2023/01/23 02:57:09;;;;;;;10.20;7.45;;;;;;;;;;4970674;28;20042;-83
2023/01/23 03:02:25;;;;;;;6.43;5.38;;;;;;;;;;5008523;28;20053;-83
2023/01/23 03:04:53;;;;;;;7.93;7.07;;;;;;;;;;4991095;28;20054;-83
2023/01/23 03:07:20;;;;;;;7.95;6.22;;;;;;;;;;5008966;28;20049;-84
2023/01/23 03:09:50;;;;;;;7.43;5.78;;;;;;;;;;4971948;28;20058;-83
2023/01/23 03:12:18;;;;;;;7.03;5.70;;;;;;;;;;4978512;28;20050;-83
2023/01/23 03:14:47;;;;;;;7.80;7.05;;;;;;;;;;5007851;28;21050;-83
2023/01/23 03:17:19;;;;;;;9.02;6.45;;;;;;;;;;4976554;28;20046;-83
2023/01/23 03:19:46;;;;;;;7.63;6.65;;;;;;;;;;4971045;28;20054;-83
2023/01/23 03:22:16;;;;;;;8.05;6.78;;;;;;;;;;4990125;28;20042;-84
2023/01/23 03:24:45;;;;;;;9.35;6.03;;;;;;;;;;4986343;28;20061;-83
2023/01/23 03:27:12;;;;;;;7.88;5.30;;;;;;;;;;4975770;28;20508;-83
2023/01/23 03:32:31;;;;;;;7.88;6.72;;;;;;;;;;4990241;28;20053;-84
2023/01/23 03:35:01;;;;;;;7.68;5.07;;;;;;;;;;4967431;28;20526;-83
2023/01/23 03:37:30;;;;;;;7.78;5.28;;;;;;;;;;4974647;28;20046;-83
2023/01/23 03:42:43;;;;;;;9.88;6.25;;;;;;;;;;4991378;28;20053;-83
2023/01/23 03:45:16;;;;;;;9.07;7.35;;;;;;;;;;4972477;28;20454;-84
2023/01/23 03:47:43;;;;;;;10.98;7.97;;;;;;;;;;5018362;22;20053;-80
2023/01/23 03:50:11;;;;;;;10.15;7.43;;;;;;;;;;5012048;28;20045;-80
2023/01/23 03:52:41;;;;;;;9.45;7.50;;;;;;;;;;5014612;28;20065;-80
2023/01/23 03:55:09;;;;;;;7.95;6.15;;;;;;;;;;5016087;28;20040;-81
2023/01/23 03:57:37;;;;;;;9.23;6.68;;;;;;;;;;5024110;28;20060;-80
2023/01/23 04:00:12;;;;;;;7.32;5.85;;;;;;;;;;5016825;28;20590;-81
2023/01/23 04:02:50;;;;;;;8.45;5.90;;;;;;;;;;5006418;28;20411;-81
2023/01/23 04:05:18;;;;;;;8.30;6.57;;;;;;;;;;5008427;28;20403;-81
2023/01/23 04:07:47;;;;;;;7.65;6.18;;;;;;;;;;5019648;28;20042;-80
2023/01/23 04:10:17;;;;;;;7.72;6.25;;;;;;;;;;5016991;28;20053;-80
2023/01/23 04:12:51;;;;;;;7.38;6.68;;;;;;;;;;5022449;28;20052;-81
2023/01/23 04:15:21;;;;;;;10.88;8.05;;;;;;;;;;4992864;28;20411;-80
2023/01/23 04:17:52;;;;;;;7.93;6.13;;;;;;;;;;5022277;28;20042;-81
2023/01/23 04:20:20;;;;;;;12.02;7.85;;;;;;;;;;4995952;28;20045;-81
2023/01/23 04:22:51;;;;;;;11.10;8.68;;;;;;;;;;5027812;28;20056;-81
2023/01/23 04:25:21;;;;;;;6.85;5.88;;;;;;;;;;5013944;28;20053;-81
2023/01/23 04:27:48;;;;;;;8.50;6.90;;;;;;;;;;5021703;28;20049;-80
2023/01/23 04:30:15;;;;;;;11.68;7.95;;;;;;;;;;5015444;28;20049;-81
2023/01/23 04:32:45;;;;;;;7.97;6.60;;;;;;;;;;5002411;28;20072;-80
2023/01/23 04:35:16;;;;;;;11.35;7.30;;;;;;;;;;5010884;28;20051;-80
2023/01/23 04:37:44;;;;;;;10.35;7.65;;;;;;;;;;5004185;28;20054;-81
2023/01/23 04:40:12;;;;;;;9.15;6.95;;;;;;;;;;4992676;28;20053;-80
2023/01/23 04:42:50;;;;;;;10.85;7.28;;;;;;;;;;5023428;28;20049;-81
2023/01/23 04:45:40;;;;;;;8.52;7.07;;;;;;;;;;5017457;28;20072;-81
2023/01/23 04:48:30;;;;;;;9.82;7.28;;;;;;;;;;5043584;28;20388;-81
2023/01/23 04:51:01;;;;;;;12.23;8.82;;;;;;;;;;5018530;28;20049;-81
2023/01/23 04:53:29;;;;;;;9.98;7.53;;;;;;;;;;5020656;28;20060;-81
2023/01/23 04:56:00;;;;;;;10.82;9.13;;;;;;;;;;5001059;28;20229;-81
2023/01/23 04:58:27;;;;;;;11.75;7.78;;;;;;;;;;5021370;28;20064;-81
2023/01/23 05:01:03;;;;;;;10.50;7.35;;;;;;;;;;5019450;28;20419;-81
2023/01/23 05:03:33;;;;;;;;;;;;;;;;;;5023223;28;20060;-81
2023/01/23 05:06:02;;;;;;;11.70;7.18;;;;;;;;;;4995919;28;19921;-81
2023/01/23 05:08:30;;;;;;;10.93;7.63;;;;;;;;;;5018081;28;20052;-80
2023/01/23 05:11:12;;;;;;;12.75;7.38;;;;;;;;;;5015985;28;20049;-81
2023/01/23 05:13:42;;;;;;;8.40;5.70;;;;;;;;;;5031977;28;20067;-82
2023/01/23 05:16:09;;;;;;;8.75;6.30;;;;;;;;;;5017920;28;20064;-80
2023/01/23 05:18:57;;;;;;;13.13;9.27;;;;;;;;;;5024723;28;20048;-81
2023/01/23 05:21:25;;;;;;;10.73;6.82;;;;;;;;;;5009640;28;20058;-81
2023/01/23 05:23:52;;;;;;;10.65;6.43;;;;;;;;;;5006192;28;20056;-81
2023/01/23 05:26:22;;;;;;;8.70;6.72;;;;;;;;;;5002192;28;20526;-81
2023/01/23 05:28:57;;;;;;;10.75;7.50;;;;;;;;;;5018442;28;20041;-81
2023/01/23 05:31:26;;;;;;;10.45;7.22;;;;;;;;;;5016543;28;20049;-81
2023/01/23 05:34:20;;;;;;;11.47;7.20;;;;;;;;;;5004322;28;20397;-81
2023/01/23 05:36:50;;;;;;;11.23;8.57;;;;;;;;;;5011512;28;20804;-81
2023/01/23 05:39:18;;;;;;;10.68;7.55;;;;;;;;;;5010764;28;20064;-81
2023/01/23 05:41:45;;;;;;;9.15;7.18;;;;;;;;;;5012169;28;20057;-81
2023/01/23 05:44:31;;;;;;;10.55;8.23;;;;;;;;;;5014806;28;20456;-81
2023/01/23 05:47:11;;;;;;;9.50;7.18;;;;;;;;;;5012805;28;20060;-81
2023/01/23 05:49:41;;;;;;;12.30;8.18;;;;;;;;;;5011816;28;20053;-81
2023/01/23 05:52:14;;;;;;;13.10;8.15;;;;;;;;;;5012913;28;20056;-82
2023/01/23 05:54:44;;;;;;;12.35;8.60;;;;;;;;;;4995606;28;20053;-81
2023/01/23 05:57:13;;;;;;;7.97;7.03;;;;;;;;;;5003659;28;20042;-81
2023/01/23 06:00:12;;;;;;;8.93;7.35;;;;;;;;;;4968811;28;20068;-81
2023/01/23 06:02:42;;;;;;;11.05;8.45;;;;;;;;;;4999610;28;20050;-81
2023/01/23 06:05:28;;;;;;;8.85;6.40;;;;;;;;;;4998018;28;20057;-81
2023/01/23 06:08:08;;;;;;;9.73;6.78;;;;;;;;;;5016321;28;20380;-81
2023/01/23 06:10:36;;;;;;;8.75;6.90;;;;;;;;;;4998255;28;20392;-81
2023/01/23 06:13:06;;;;;;;7.90;5.82;;;;;;;;;;4981291;28;20713;-81
2023/01/23 06:15:33;;;;;;;10.85;7.25;;;;;;;;;;4986846;28;20049;-82
2023/01/23 06:18:05;;;;;;;9.25;7.25;;;;;;;;;;4982146;28;20056;-82
2023/01/23 06:20:35;;;;;;;10.55;8.10;;;;;;;;;;4996931;28;21331;-81
2023/01/23 06:23:03;;;;;;;10.65;8.57;;;;;;;;;;5020762;28;20319;-82
2023/01/23 06:25:37;;;;;;;8.85;7.40;;;;;;;;;;4997088;28;20037;-81
2023/01/23 06:28:09;;;;;;;8.93;6.97;;;;;;;;;;4982145;28;20053;-82
2023/01/23 06:30:39;;;;;;;12.35;8.55;;;;;;;;;;4980838;28;20061;-82
2023/01/23 06:33:15;;;;;;;7.53;6.75;;;;;;;;;;4998647;28;20050;-81
2023/01/23 06:35:42;;;;;;;9.48;6.55;;;;;;;;;;4994841;28;20049;-82
2023/01/23 06:38:10;;;;;;;12.95;7.75;;;;;;;;;;4997128;28;20050;-82
2023/01/23 06:40:38;;;;;;;11.35;8.82;;;;;;;;;;5012414;28;20049;-82
2023/01/23 06:43:26;;;;;;;11.65;7.38;;;;;;;;;;5001695;28;20045;-82
2023/01/23 06:45:54;;;;;;;11.48;8.23;;;;;;;;;;4994721;28;20069;-82
2023/01/23 06:48:21;;;;;;;11.57;8.38;;;;;;;;;;4999719;28;20049;-82
2023/01/23 06:50:51;;;;;;;12.75;8.85;;;;;;;;;;4988463;28;20389;-82
2023/01/23 06:53:19;;;;;;;15.63;10.80;;;;;;;;;;5013369;28;20064;-82
2023/01/23 06:55:49;;;;;;;11.18;8.75;;;;;;;;;;5025860;28;20041;-81
2023/01/23 06:58:17;;;;;;;12.43;7.50;;;;;;;;;;4995120;28;20526;-82
2023/01/23 07:00:45;;;;;;;12.15;8.02;;;;;;;;;;4989692;28;20522;-82
2023/01/23 07:03:27;;;;;;;11.55;6.40;;;;;;;;;;5009961;28;20342;-82
2023/01/23 07:05:56;;;;;;;13.18;9.68;;;;;;;;;;5012730;28;20411;-82
2023/01/23 07:08:24;;;;;;;11.98;7.80;;;;;;;;;;5014886;28;20049;-82
2023/01/23 07:10:54;;;;;;;12.57;8.00;;;;;;;;;;4993744;28;20077;-82
2023/01/23 07:13:21;;;;;;;13.73;8.93;;;;;;;;;;5028461;28;20050;-82
2023/01/23 07:15:50;;;;;;;15.10;10.13;;;;;;;;;;5040939;28;20049;-81
2023/01/23 07:18:17;;;;;;;10.15;7.43;;;;;;;;;;5012880;28;20515;-82
2023/01/23 07:20:45;;;;;;;11.73;8.10;;;;;;;;;;5025020;28;20046;-82
2023/01/23 07:23:12;;;;;;;11.68;7.97;;;;;;;;;;5010618;28;20045;-82
2023/01/23 07:25:39;;;;;;;12.57;7.57;;;;;;;;;;5027997;28;20053;-82
2023/01/23 07:28:12;;;;;;;12.82;7.35;;;;;;;;;;5007582;28;20045;-81
2023/01/23 07:30:42;;;;;;;13.95;9.75;;;;;;;;;;5031981;28;20053;-80
2023/01/23 07:33:12;;;;;;;9.50;7.05;;;;;;;;;;5041670;28;20049;-81
2023/01/23 07:35:41;;;;;;;12.50;7.78;;;;;;;;;;5003973;28;20046;-81
2023/01/23 07:38:09;;;;;;;12.60;8.70;;;;;;;;;;5012125;28;20507;-81
2023/01/23 07:40:41;;;;;;;9.55;7.30;;;;;;;;;;5028017;28;20479;-82
2023/01/23 07:43:12;;;;;;;11.20;8.93;;;;;;;;;;5023623;28;20427;-81
2023/01/23 07:45:42;;;;;;;12.95;8.32;;;;;;;;;;5013879;28;20061;-82
2023/01/23 07:48:09;;;;;;;13.63;9.23;;;;;;;;;;5008934;28;20053;-82
2023/01/23 07:50:37;;;;;;;12.38;8.65;;;;;;;;;;5017743;28;20061;-82
2023/01/23 07:53:05;;;;;;;12.68;8.75;;;;;;;;;;5041570;28;20510;-82
2023/01/23 07:55:38;;;;;;;13.23;9.38;;;;;;;;;;5009135;28;20057;-83
2023/01/23 07:58:05;;;;;;;14.50;10.73;;;;;;;;;;5005008;28;20060;-83
2023/01/23 08:00:34;;;;;;;11.70;7.03;;;;;;;;;;5021744;28;20057;-83
2023/01/23 08:03:01;;;;;;;13.40;9.18;;;;;;;;;;5015151;28;20052;-83
2023/01/23 08:05:31;;;;;;;17.27;11.50;;;;;;;;;;5020375;28;21509;-83
2023/01/23 08:08:00;;;;;;;20.10;11.85;;;;;;;;;;5004995;28;20076;-83
2023/01/23 08:10:27;;;;;;;11.85;10.18;;;;;;;;;;5004056;28;20053;-83
2023/01/23 08:12:54;;;;;;;18.30;10.40;;;;;;;;;;5019211;28;20046;-83
2023/01/23 08:15:22;;;;;;;17.77;12.90;;;;;;;;;;5021020;28;20054;-83
2023/01/23 08:17:53;;;;;;;15.02;8.77;;;;;;;;;;5020143;28;20045;-84
2023/01/23 08:20:21;;;;;;;18.38;11.43;;;;;;;;;;5019360;28;20049;-83
2023/01/23 08:22:51;;;;;;;14.32;11.50;;;;;;;;;;5008580;28;20049;-83
2023/01/23 08:25:18;;;;;;;15.45;10.00;;;;;;;;;;5008885;28;20049;-84
2023/01/23 08:27:45;;;;;;;17.42;10.35;;;;;;;;;;5031509;28;20060;-83
2023/01/23 08:30:13;;;;;;;15.48;9.90;;;;;;;;;;5010864;28;20399;-83
2023/01/23 08:32:45;;;;;;;19.35;11.85;;;;;;;;;;5012585;28;20419;-84
2023/01/23 08:35:14;;;;;;;15.73;12.25;;;;;;;;;;5010229;28;20056;-83
2023/01/23 08:37:41;;;;;;;23.00;12.23;;;;;;;;;;5008508;28;20049;-83
2023/01/23 08:40:12;;;;;;;14.80;10.30;;;;;;;;;;5010977;28;20041;-83
2023/01/23 08:42:39;;;;;;;15.45;11.35;;;;;;;;;;5034156;28;20052;-81
2023/01/23 08:45:09;;;;;;;18.10;9.82;;;;;;;;;;4998506;28;20052;-82
2023/01/23 08:47:37;;;;;;;13.23;9.13;;;;;;;;;;5021580;28;20053;-82
2023/01/23 08:50:08;;;;;;;14.80;8.35;;;;;;;;;;5027530;28;20040;-82
2023/01/23 08:52:37;;;;;;;13.48;10.50;;;;;;;;;;5013351;28;20054;-82
2023/01/23 08:55:05;;;;;;;14.90;8.35;;;;;;;;;;5030729;28;20484;-82
2023/01/23 08:57:32;;;;;;;10.32;6.78;;;;;;;;;;5009824;28;20067;-84
2023/01/23 09:00:05;;;;;;;9.05;7.55;;;;;;;;;;4993709;28;20060;-83
2023/01/23 09:02:32;;;;;;;8.30;6.40;;;;;;;;;;5030265;28;20049;-81
2023/01/23 09:05:03;;;;;;;9.93;6.55;;;;;;;;;;4992238;28;20053;-82
2023/01/23 09:07:30;;;;;;;11.38;8.18;;;;;;;;;;5011702;28;20054;-81
2023/01/23 09:10:01;;;;;;;9.95;7.15;;;;;;;;;;5010670;28;20065;-82
2023/01/23 09:12:30;;;;;;;8.88;6.95;;;;;;;;;;5029772;28;20037;-82
2023/01/23 09:14:59;;;;;;;9.68;6.78;;;;;;;;;;4996368;28;20380;-81
2023/01/23 09:17:27;;;;;;;11.25;8.50;;;;;;;;;;5028248;28;20053;-82
2023/01/23 09:19:54;;;;;;;9.23;7.20;;;;;;;;;;5003328;28;20048;-81
2023/01/23 09:22:26;;;;;;;7.18;6.03;;;;;;;;;;4999185;28;20516;-81
2023/01/23 09:24:56;;;;;;;8.93;7.25;;;;;;;;;;4985185;28;20061;-81
2023/01/23 09:27:25;;;;;;;10.95;7.78;;;;;;;;;;5016996;28;20488;-82
2023/01/23 09:29:52;;;;;;;12.48;7.07;;;;;;;;;;5002284;28;20042;-81
2023/01/23 09:32:19;;;;;;;13.98;7.57;;;;;;;;;;5023011;28;20511;-81
2023/01/23 09:34:49;;;;;;;10.50;7.85;;;;;;;;;;5018906;28;20057;-81
2023/01/23 09:37:17;;;;;;;9.80;8.02;;;;;;;;;;5021995;28;20053;-81
2023/01/23 09:39:44;;;;;;;9.25;6.93;;;;;;;;;;5029478;28;20037;-82
2023/01/23 09:42:17;;;;;;;9.52;8.23;;;;;;;;;;5031322;28;20075;-82
2023/01/23 09:44:51;;;;;;;10.25;6.93;;;;;;;;;;5036594;28;20056;-82
2023/01/23 09:47:32;;;;;;;;;;;;;;;;;;;;;
2023/01/23 09:53:13;;;;;;;10.02;7.20;;;;;;;;;;5855408;22;20049;-86
2023/01/23 09:55:44;;;;;;;9.90;7.70;;;;;;;;;;5016941;28;20114;-87
2023/01/23 09:58:18;;;;;;;10.32;7.50;;;;;;;;;;5035620;28;20049;-87
2023/01/23 10:00:50;;;;;;;9.50;7.03;;;;;;;;;;5037376;28;20048;-86
2023/01/23 10:03:18;;;;;;;9.20;7.13;;;;;;;;;;5036032;28;20045;-86
2023/01/23 10:05:53;;;;;;;9.77;6.78;;;;;;;;;;5034776;28;20521;-86
2023/01/23 10:08:30;;;;;;;8.52;6.60;;;;;;;;;;5017827;28;20553;-87
2023/01/23 10:10:59;;;;;;;9.48;6.40;;;;;;;;;;5007751;28;20041;-87
2023/01/23 10:13:39;;;;;;;10.25;6.07;;;;;;;;;;5010347;28;20068;-86
2023/01/23 10:16:19;;;;;;;9.13;5.85;;;;;;;;;;5012089;28;20049;-87
2023/01/23 10:18:53;;;;;;;7.85;5.85;;;;;;;;;;5018444;28;20414;-87
2023/01/23 10:21:25;;;;;;;7.82;7.00;;;;;;;;;;5019679;28;20053;-87
2023/01/23 10:24:02;;;;;;;11.65;7.47;;;;;;;;;;5049467;28;20558;-86
2023/01/23 10:26:32;;;;;;;8.48;7.03;;;;;;;;;;5035737;28;20048;-88
2023/01/23 10:29:03;;;;;;;7.60;6.47;;;;;;;;;;5035874;28;20045;-88
2023/01/23 10:31:38;;;;;;;9.32;6.15;;;;;;;;;;5009068;28;20060;-87
2023/01/23 10:34:13;;;;;;;11.02;7.10;;;;;;;;;;5043583;28;20532;-87
2023/01/23 10:36:49;;;;;;;12.43;8.07;;;;;;;;;;5032518;28;20047;-88
2023/01/23 10:39:19;;;;;;;8.52;5.78;;;;;;;;;;5029196;28;20045;-89
2023/01/23 10:41:46;;;;;;;9.60;8.20;;;;;;;;;;5012045;28;20049;-89
2023/01/23 10:44:17;;;;;;;8.27;5.88;;;;;;;;;;5029224;28;20049;-88
2023/01/23 10:46:48;;;;;;;10.18;7.18;;;;;;;;;;5047110;28;20045;-88
2023/01/23 10:49:28;;;;;;;9.90;6.43;;;;;;;;;;5031318;28;20045;-87
2023/01/23 10:51:58;;;;;;;7.25;5.90;;;;;;;;;;5047055;28;21147;-87
2023/01/23 10:54:29;;;;;;;9.27;6.70;;;;;;;;;;5017689;28;20055;-86
2023/01/23 10:57:00;;;;;;;10.25;6.90;;;;;;;;;;5032289;28;20049;-88
2023/01/23 10:59:35;;;;;;;12.15;8.52;;;;;;;;;;5030362;28;20056;-87
2023/01/23 11:02:19;;;;;;;8.80;7.13;;;;;;;;;;5008598;28;20052;-87
2023/01/23 11:04:48;;;;;;;10.77;8.50;;;;;;;;;;5016872;28;20048;-89
2023/01/23 11:07:19;;;;;;;10.43;6.95;;;;;;;;;;5011377;28;20056;-87
2023/01/23 11:09:50;;;;;;;10.55;7.68;;;;;;;;;;5018091;28;20052;-87
2023/01/23 11:12:22;;;;;;;8.65;5.63;;;;;;;;;;5022965;28;20051;-88
2023/01/23 11:14:50;;;;;;;9.55;6.55;;;;;;;;;;5042552;28;20056;-86
2023/01/23 11:17:33;;;;;;;11.88;6.63;;;;;;;;;;5029270;28;20056;-89
2023/01/23 11:20:14;;;;;;;9.97;7.33;;;;;;;;;;5032543;28;20400;-87
2023/01/23 11:22:41;;;;;;;13.25;7.32;;;;;;;;;;5003634;28;20057;-87
2023/01/23 11:25:31;;;;;;;10.75;6.45;;;;;;;;;;5014601;28;20497;-88
2023/01/23 11:28:24;;;;;;;7.72;5.80;;;;;;;;;;5049476;28;20037;-87
2023/01/23 11:30:54;;;;;;;10.32;6.20;;;;;;;;;;5032499;28;20403;-88
2023/01/23 11:33:33;;;;;;;9.85;7.13;;;;;;;;;;5034008;28;20056;-87
2023/01/23 11:36:07;;;;;;;9.68;6.40;;;;;;;;;;5027449;28;20585;-87
2023/01/23 11:38:40;;;;;;;12.60;6.47;;;;;;;;;;5029586;28;20044;-87
2023/01/23 11:41:11;;;;;;;10.50;6.22;;;;;;;;;;5020805;28;20052;-87
2023/01/23 11:43:40;;;;;;;8.35;6.95;;;;;;;;;;5044264;28;20048;-89
2023/01/23 11:46:20;;;;;;;12.93;7.20;;;;;;;;;;5038071;28;20057;-87
2023/01/23 11:49:16;;;;;;;7.68;6.82;;;;;;;;;;5022781;28;20025;-85
2023/01/23 11:51:48;;;;;;;8.63;7.03;;;;;;;;;;5026110;28;20044;-86
2023/01/23 11:54:32;;;;;;;13.00;7.05;;;;;;;;;;5006915;28;20056;-86
2023/01/23 11:57:02;;;;;;;8.85;6.72;;;;;;;;;;5017982;28;20057;-87
2023/01/23 11:59:46;;;;;;;12.18;7.32;;;;;;;;;;5013526;28;20106;-87
2023/01/23 12:02:44;;;;;;;8.55;6.22;;;;;;;;;;5054407;28;20123;-86
2023/01/23 12:05:24;;;;;;;8.77;7.47;;;;;;;;;;5028574;28;20053;-86
2023/01/23 12:08:00;;;;;;;13.30;7.53;;;;;;;;;;5020825;28;20063;-87
2023/01/23 12:10:35;;;;;;;8.68;5.78;;;;;;;;;;5034521;28;20045;-87
2023/01/23 12:13:13;;;;;;;9.70;7.60;;;;;;;;;;5028571;28;20045;-88
2023/01/23 12:15:44;;;;;;;11.32;7.60;;;;;;;;;;5029610;28;20053;-87
2023/01/23 12:18:23;;;;;;;8.07;6.65;;;;;;;;;;5056639;28;20256;-86
2023/01/23 12:21:00;;;;;;;6.63;4.78;;;;;;;;;;5033164;28;20052;-87
2023/01/23 12:23:39;;;;;;;13.10;7.82;;;;;;;;;;5036530;28;20060;-87
2023/01/23 12:26:13;;;;;;;10.13;6.55;;;;;;;;;;5023994;28;20056;-87
2023/01/23 12:28:55;;;;;;;10.50;5.97;;;;;;;;;;5014180;28;20044;-87
2023/01/23 12:31:35;;;;;;;7.28;6.13;;;;;;;;;;5022359;28;20045;-87
2023/01/23 12:34:26;;;;;;;9.18;5.80;;;;;;;;;;5013747;28;20046;-88
2023/01/23 12:37:14;;;;;;;9.73;6.90;;;;;;;;;;5036444;28;20056;-89
2023/01/23 12:40:06;;;;;;;8.88;5.85;;;;;;;;;;5013832;28;20427;-87
2023/01/23 12:42:40;;;;;;;11.52;5.93;;;;;;;;;;5011469;28;20057;-88
2023/01/23 12:45:15;;;;;;;9.30;6.55;;;;;;;;;;5051352;28;20053;-88
2023/01/23 12:47:48;;;;;;;9.32;6.35;;;;;;;;;;5018029;28;20049;-87
2023/01/23 12:50:20;;;;;;;9.80;7.90;;;;;;;;;;5019022;28;20056;-86
2023/01/23 12:52:50;;;;;;;9.73;6.53;;;;;;;;;;5025504;28;20517;-87
2023/01/23 12:55:21;;;;;;;7.90;5.55;;;;;;;;;;5017972;28;20049;-87
2023/01/23 12:57:53;;;;;;;10.38;6.28;;;;;;;;;;5019393;28;20053;-86
2023/01/23 13:00:31;;;;;;;9.63;6.82;;;;;;;;;;5021174;28;20425;-87
2023/01/23 13:03:10;;;;;;;7.30;6.35;;;;;;;;;;5033826;28;20405;-88
2023/01/23 13:05:43;;;;;;;7.82;6.60;;;;;;;;;;5020537;28;20041;-86
2023/01/23 13:08:20;;;;;;;9.23;6.40;;;;;;;;;;5010310;28;20053;-88
2023/01/23 13:13:46;;;;;;;10.38;7.28;;;;;;;;;;5017815;28;20049;-89
2023/01/23 13:16:14;;;;;;;9.90;7.18;;;;;;;;;;5034869;28;20045;-86
2023/01/23 13:27:39;;;;;;;8.82;7.47;;;;;;;;;;5034589;28;20054;-88
2023/01/23 13:30:38;;;;;;;8.98;5.60;;;;;;;;;;5032378;28;20053;-86
2023/01/23 13:33:48;;;;;;;8.55;6.40;;;;;;;;;;5019700;28;20056;-86
2023/01/23 13:36:23;;;;;;;10.48;6.05;;;;;;;;;;4957677;28;20049;-86
2023/01/23 13:39:22;;;;;;;8.43;6.20;;;;;;;;;;4972924;28;20679;-86
2023/01/23 13:41:53;;;;;;;9.05;4.95;;;;;;;;;;5020794;28;20059;-86
2023/01/23 13:44:25;;;;;;;14.00;6.45;;;;;;;;;;5015947;28;20059;-86
2023/01/23 13:50:05;;;;;;;7.57;5.93;;;;;;;;;;5025698;28;20048;-87
2023/01/23 13:58:16;;;;;;;9.05;6.47;;;;;;;;;;5025103;28;20056;-86
2023/01/23 14:05:11;;;;;;;6.97;5.57;;;;;;;;;;5027865;28;20525;-87
2023/01/23 14:06:32;;;;;;;9.57;5.78;;;;;;;;;;5033179;28;20526;-86
2023/01/23 14:08:59;;;;;;;11.95;6.47;;;;;;;;;;5018342;28;20045;-87
2023/01/23 14:11:35;;;;;;;8.35;6.53;;;;;;;;;;5015889;28;20045;-86
2023/01/23 14:16:50;;;;;;;7.93;6.53;;;;;;;;;;5045924;28;20044;-86
2023/01/23 14:19:23;;;;;;;8.27;6.30;;;;;;;;;;5044199;28;20051;-87
2023/01/23 14:21:55;;;;;;;5.80;4.57;;;;;;;;;;5026009;28;20079;-86
2023/01/23 14:24:27;;;;;;;7.50;5.55;;;;;;;;;;5007831;28;20041;-87
2023/01/23 14:27:00;;;;;;;7.85;6.68;;;;;;;;;;5048419;28;20056;-86
2023/01/23 14:29:29;;;;;;;7.65;5.15;;;;;;;;;;5033869;28;20052;-86
2023/01/23 14:31:56;;;;;;;8.52;6.53;;;;;;;;;;5031937;28;20053;-87
2023/01/23 14:34:25;;;;;;;6.05;5.03;;;;;;;;;;5007100;28;20049;-87
2023/01/23 14:36:56;;;;;;;7.78;6.28;;;;;;;;;;5011537;28;20060;-87
2023/01/23 14:39:28;;;;;;;8.50;5.47;;;;;;;;;;5008584;28;20056;-87
2023/01/23 14:41:59;;;;;;;7.47;5.55;;;;;;;;;;5031248;28;20060;-86
2023/01/23 14:44:30;;;;;;;10.07;7.20;;;;;;;;;;5015946;28;20045;-87
2023/01/23 14:47:02;;;;;;;6.38;5.03;;;;;;;;;;5030365;28;20049;-87
2023/01/23 14:49:35;;;;;;;7.97;5.55;;;;;;;;;;5011904;28;20532;-86
2023/01/23 14:52:07;;;;;;;7.43;5.40;;;;;;;;;;5013582;28;20041;-86
2023/01/23 14:54:44;;;;;;;7.05;5.30;;;;;;;;;;5026436;28;20056;-87
2023/01/23 14:57:12;;;;;;;9.05;5.68;;;;;;;;;;5016513;28;20516;-87
2023/01/23 14:59:44;;;;;;;8.60;6.40;;;;;;;;;;5021065;28;20060;-87
2023/01/23 15:02:27;;;;;;;6.80;4.60;;;;;;;;;;5032152;28;20498;-86
2023/01/23 15:05:07;;;;;;;8.63;5.20;;;;;;;;;;5011758;28;20049;-87
2023/01/23 15:07:34;;;;;;;6.32;5.10;;;;;;;;;;5022826;28;20510;-87
2023/01/23 15:10:02;;;;;;;7.20;4.75;;;;;;;;;;5032872;28;20056;-86
2023/01/23 15:12:30;;;;;;;7.07;5.53;;;;;;;;;;5023166;28;20056;-87
2023/01/23 15:15:01;;;;;;;8.73;6.40;;;;;;;;;;5029999;28;20057;-86
2023/01/23 15:17:28;;;;;;;5.43;4.22;;;;;;;;;;5033304;28;20033;-87
2023/01/23 15:19:58;;;;;;;8.40;6.97;;;;;;;;;;5033402;28;20049;-86
2023/01/23 15:22:27;;;;;;;6.43;5.78;;;;;;;;;;5018868;28;20052;-87
2023/01/23 15:24:57;;;;;;;8.38;6.60;;;;;;;;;;5033944;28;20053;-87
2023/01/23 15:27:27;;;;;;;8.02;5.82;;;;;;;;;;5031342;28;20061;-86
2023/01/23 15:30:27;;;;;;;7.20;5.18;;;;;;;;;;5007814;28;20057;-87
2023/01/23 15:32:57;;;;;;;10.52;6.43;;;;;;;;;;5014292;28;20448;-90
2023/01/23 15:35:25;;;;;;;8.43;5.43;;;;;;;;;;5046632;28;20045;-86
2023/01/23 15:37:54;;;;;;;8.65;6.03;;;;;;;;;;5031754;28;20061;-88
2023/01/23 15:40:27;;;;;;;6.68;4.68;;;;;;;;;;5014432;28;20045;-88
2023/01/23 15:43:02;;;;;;;9.00;6.80;;;;;;;;;;5044743;28;20053;-90
2023/01/23 15:45:30;;;;;;;9.45;7.32;;;;;;;;;;5048421;28;20040;-87